sensor_id;sensor_type;location;lat;lon;timestamp;temperature;humidity
53904;DHT22;39812;52.430;16.936;2023-04-06T00:01:14;-1.40;99.70
53904;DHT22;39812;52.430;16.936;2023-04-06T00:03:40;-1.60;99.80
53904;DHT22;39812;52.430;16.936;2023-04-06T00:06:06;-1.70;99.90
53904;DHT22;39812;52.430;16.936;2023-04-06T00:08:31;-1.80;99.90
53904;DHT22;39812;52.430;16.936;2023-04-06T00:10:57;-1.70;99.90
53904;DHT22;39812;52.430;16.936;2023-04-06T00:13:22;-1.50;99.90
53904;DHT22;39812;52.430;16.936;2023-04-06T00:15:48;-1.60;99.90
53904;DHT22;39812;52.430;16.936;2023-04-06T00:18:14;-1.60;99.90
53904;DHT22;39812;52.430;16.936;2023-04-06T00:20:39;-1.70;99.90
53904;DHT22;39812;52.430;16.936;2023-04-06T00:23:05;-1.70;99.90
53904;DHT22;39812;52.430;16.936;2023-04-06T00:25:31;-1.80;99.90
53904;DHT22;39812;52.430;16.936;2023-04-06T00:27:56;-1.70;99.90
53904;DHT22;39812;52.430;16.936;2023-04-06T00:30:22;-1.70;99.90
53904;DHT22;39812;52.430;16.936;2023-04-06T00:32:48;-1.70;99.90
53904;DHT22;39812;52.430;16.936;2023-04-06T00:35:14;-1.70;99.90
53904;DHT22;39812;52.430;16.936;2023-04-06T00:37:40;-1.70;99.90
53904;DHT22;39812;52.430;16.936;2023-04-06T00:40:06;-1.60;99.90
53904;DHT22;39812;52.430;16.936;2023-04-06T00:42:32;-1.70;99.90
53904;DHT22;39812;52.430;16.936;2023-04-06T00:44:59;-1.70;99.90
53904;DHT22;39812;52.430;16.936;2023-04-06T00:47:25;-1.80;99.90
53904;DHT22;39812;52.430;16.936;2023-04-06T00:49:52;-1.80;99.90
53904;DHT22;39812;52.430;16.936;2023-04-06T00:52:18;-1.80;99.90
53904;DHT22;39812;52.430;16.936;2023-04-06T00:54:45;-1.90;99.90
53904;DHT22;39812;52.430;16.936;2023-04-06T00:57:13;-1.90;99.90
53904;DHT22;39812;52.430;16.936;2023-04-06T00:59:40;-1.90;99.90
53904;DHT22;39812;52.430;16.936;2023-04-06T01:02:06;-2.00;99.90
53904;DHT22;39812;52.430;16.936;2023-04-06T01:04:32;-1.90;99.90
53904;DHT22;39812;52.430;16.936;2023-04-06T01:06:58;-1.90;99.90
53904;DHT22;39812;52.430;16.936;2023-04-06T01:09:24;-1.80;99.90
53904;DHT22;39812;52.430;16.936;2023-04-06T01:11:49;-1.90;99.90
53904;DHT22;39812;52.430;16.936;2023-04-06T01:14:15;-1.80;99.90
53904;DHT22;39812;52.430;16.936;2023-04-06T01:16:41;-1.70;99.90
53904;DHT22;39812;52.430;16.936;2023-04-06T01:19:11;-1.90;99.90
53904;DHT22;39812;52.430;16.936;2023-04-06T01:21:38;-1.80;99.90
53904;DHT22;39812;52.430;16.936;2023-04-06T01:24:04;-1.70;99.90
53904;DHT22;39812;52.430;16.936;2023-04-06T01:26:31;-1.80;99.90
53904;DHT22;39812;52.430;16.936;2023-04-06T01:28:57;-1.90;99.90
53904;DHT22;39812;52.430;16.936;2023-04-06T01:31:23;-1.90;99.90
53904;DHT22;39812;52.430;16.936;2023-04-06T01:33:49;-2.00;99.90
53904;DHT22;39812;52.430;16.936;2023-04-06T01:36:15;-2.10;99.90
53904;DHT22;39812;52.430;16.936;2023-04-06T01:38:41;-2.10;99.90
53904;DHT22;39812;52.430;16.936;2023-04-06T01:41:07;-2.10;99.90
53904;DHT22;39812;52.430;16.936;2023-04-06T01:43:33;-2.10;99.90
53904;DHT22;39812;52.430;16.936;2023-04-06T01:45:59;-2.10;99.90
53904;DHT22;39812;52.430;16.936;2023-04-06T01:48:26;-2.10;99.90
53904;DHT22;39812;52.430;16.936;2023-04-06T01:50:53;-2.10;99.90
53904;DHT22;39812;52.430;16.936;2023-04-06T01:53:18;-2.20;99.90
53904;DHT22;39812;52.430;16.936;2023-04-06T01:55:44;-2.10;99.90
53904;DHT22;39812;52.430;16.936;2023-04-06T01:58:09;-2.10;99.90
53904;DHT22;39812;52.430;16.936;2023-04-06T02:00:35;-2.10;99.90
53904;DHT22;39812;52.430;16.936;2023-04-06T02:03:01;-2.10;99.90
53904;DHT22;39812;52.430;16.936;2023-04-06T02:05:29;-2.20;99.90
53904;DHT22;39812;52.430;16.936;2023-04-06T02:07:54;-2.20;99.90
53904;DHT22;39812;52.430;16.936;2023-04-06T02:10:20;-2.10;99.90
53904;DHT22;39812;52.430;16.936;2023-04-06T02:12:46;-2.00;99.90
53904;DHT22;39812;52.430;16.936;2023-04-06T02:15:12;-2.00;99.90
53904;DHT22;39812;52.430;16.936;2023-04-06T02:17:39;-2.20;99.90
53904;DHT22;39812;52.430;16.936;2023-04-06T02:20:05;-2.30;99.90
53904;DHT22;39812;52.430;16.936;2023-04-06T02:22:31;-2.40;99.90
53904;DHT22;39812;52.430;16.936;2023-04-06T02:24:56;-2.30;99.90
53904;DHT22;39812;52.430;16.936;2023-04-06T02:27:22;-2.20;99.90
53904;DHT22;39812;52.430;16.936;2023-04-06T02:29:48;-2.10;99.90
53904;DHT22;39812;52.430;16.936;2023-04-06T02:32:13;-2.10;99.90
53904;DHT22;39812;52.430;16.936;2023-04-06T02:34:39;-2.10;99.90
53904;DHT22;39812;52.430;16.936;2023-04-06T02:37:05;-2.10;99.90
53904;DHT22;39812;52.430;16.936;2023-04-06T02:39:30;-2.20;99.90
53904;DHT22;39812;52.430;16.936;2023-04-06T02:41:56;-2.20;99.90
53904;DHT22;39812;52.430;16.936;2023-04-06T02:44:22;-2.20;99.90
53904;DHT22;39812;52.430;16.936;2023-04-06T02:46:48;-2.30;99.90
53904;DHT22;39812;52.430;16.936;2023-04-06T02:49:13;-2.30;99.90
53904;DHT22;39812;52.430;16.936;2023-04-06T02:51:39;-2.30;99.90
53904;DHT22;39812;52.430;16.936;2023-04-06T02:54:05;-2.40;99.90
53904;DHT22;39812;52.430;16.936;2023-04-06T02:56:30;-2.40;99.90
53904;DHT22;39812;52.430;16.936;2023-04-06T02:58:56;-2.40;99.90
53904;DHT22;39812;52.430;16.936;2023-04-06T03:01:21;-2.40;99.90
53904;DHT22;39812;52.430;16.936;2023-04-06T03:03:47;-2.40;99.90
53904;DHT22;39812;52.430;16.936;2023-04-06T03:06:13;-2.40;99.90
53904;DHT22;39812;52.430;16.936;2023-04-06T03:08:38;-2.50;99.90
53904;DHT22;39812;52.430;16.936;2023-04-06T03:11:04;-2.50;99.90
53904;DHT22;39812;52.430;16.936;2023-04-06T03:13:30;-2.60;99.90
53904;DHT22;39812;52.430;16.936;2023-04-06T03:15:55;-2.70;99.90
53904;DHT22;39812;52.430;16.936;2023-04-06T03:18:22;-2.60;99.90
53904;DHT22;39812;52.430;16.936;2023-04-06T03:20:48;-2.60;99.90
53904;DHT22;39812;52.430;16.936;2023-04-06T03:23:14;-2.60;99.90
53904;DHT22;39812;52.430;16.936;2023-04-06T03:25:40;-2.60;99.90
53904;DHT22;39812;52.430;16.936;2023-04-06T03:28:05;-2.60;99.90
53904;DHT22;39812;52.430;16.936;2023-04-06T03:30:31;-2.60;99.90
53904;DHT22;39812;52.430;16.936;2023-04-06T03:32:57;-2.70;99.90
53904;DHT22;39812;52.430;16.936;2023-04-06T03:35:22;-2.60;99.90
53904;DHT22;39812;52.430;16.936;2023-04-06T03:37:48;-2.70;99.90
53904;DHT22;39812;52.430;16.936;2023-04-06T03:40:13;-2.60;99.90
53904;DHT22;39812;52.430;16.936;2023-04-06T03:42:39;-2.60;99.90
53904;DHT22;39812;52.430;16.936;2023-04-06T03:45:05;-2.50;99.90
53904;DHT22;39812;52.430;16.936;2023-04-06T03:47:31;-2.60;99.90
53904;DHT22;39812;52.430;16.936;2023-04-06T03:49:56;-2.70;99.90
53904;DHT22;39812;52.430;16.936;2023-04-06T03:52:22;-2.80;99.90
53904;DHT22;39812;52.430;16.936;2023-04-06T03:54:48;-2.80;99.90
53904;DHT22;39812;52.430;16.936;2023-04-06T03:57:14;-2.90;99.90
53904;DHT22;39812;52.430;16.936;2023-04-06T03:59:40;-3.00;99.90
53904;DHT22;39812;52.430;16.936;2023-04-06T04:02:05;-3.00;99.90
53904;DHT22;39812;52.430;16.936;2023-04-06T04:04:31;-3.00;99.90
53904;DHT22;39812;52.430;16.936;2023-04-06T04:06:57;-3.10;99.90
53904;DHT22;39812;52.430;16.936;2023-04-06T04:09:22;-3.20;99.90
53904;DHT22;39812;52.430;16.936;2023-04-06T04:11:48;-3.20;99.90
53904;DHT22;39812;52.430;16.936;2023-04-06T04:14:13;-3.20;99.90
53904;DHT22;39812;52.430;16.936;2023-04-06T04:16:39;-3.10;99.90
53904;DHT22;39812;52.430;16.936;2023-04-06T04:19:06;-3.10;99.90
53904;DHT22;39812;52.430;16.936;2023-04-06T04:21:32;-3.10;99.90
53904;DHT22;39812;52.430;16.936;2023-04-06T04:23:58;-3.00;99.90
53904;DHT22;39812;52.430;16.936;2023-04-06T04:26:23;-3.00;99.90
53904;DHT22;39812;52.430;16.936;2023-04-06T04:28:49;-2.90;99.90
53904;DHT22;39812;52.430;16.936;2023-04-06T04:31:15;-2.90;99.90
53904;DHT22;39812;52.430;16.936;2023-04-06T04:33:43;-2.90;99.90
53904;DHT22;39812;52.430;16.936;2023-04-06T04:36:09;-2.80;99.90
53904;DHT22;39812;52.430;16.936;2023-04-06T04:38:35;-2.90;99.90
53904;DHT22;39812;52.430;16.936;2023-04-06T04:41:01;-2.70;99.90
53904;DHT22;39812;52.430;16.936;2023-04-06T04:43:26;-2.70;99.90
53904;DHT22;39812;52.430;16.936;2023-04-06T04:45:52;-2.50;99.90
53904;DHT22;39812;52.430;16.936;2023-04-06T04:48:18;-2.40;99.90
53904;DHT22;39812;52.430;16.936;2023-04-06T04:50:43;-2.40;99.90
53904;DHT22;39812;52.430;16.936;2023-04-06T04:53:09;-2.30;99.90
53904;DHT22;39812;52.430;16.936;2023-04-06T04:55:35;-2.20;99.90
53904;DHT22;39812;52.430;16.936;2023-04-06T04:58:00;-2.00;99.90
53904;DHT22;39812;52.430;16.936;2023-04-06T05:00:27;-2.00;99.90
53904;DHT22;39812;52.430;16.936;2023-04-06T05:02:53;-1.80;99.90
53904;DHT22;39812;52.430;16.936;2023-04-06T05:05:18;-1.80;99.90
53904;DHT22;39812;52.430;16.936;2023-04-06T05:07:44;-1.60;99.90
53904;DHT22;39812;52.430;16.936;2023-04-06T05:10:10;-1.50;99.90
53904;DHT22;39812;52.430;16.936;2023-04-06T05:12:36;-1.40;99.90
53904;DHT22;39812;52.430;16.936;2023-04-06T05:15:02;-1.40;99.90
53904;DHT22;39812;52.430;16.936;2023-04-06T05:17:28;-1.20;99.90
53904;DHT22;39812;52.430;16.936;2023-04-06T05:19:54;-1.20;99.90
53904;DHT22;39812;52.430;16.936;2023-04-06T05:22:19;-1.10;99.90
53904;DHT22;39812;52.430;16.936;2023-04-06T05:24:45;-1.00;99.90
53904;DHT22;39812;52.430;16.936;2023-04-06T05:27:11;-1.00;99.90
53904;DHT22;39812;52.430;16.936;2023-04-06T05:29:36;-0.80;99.90
53904;DHT22;39812;52.430;16.936;2023-04-06T05:32:02;-0.80;99.90
53904;DHT22;39812;52.430;16.936;2023-04-06T05:34:28;-0.70;99.90
53904;DHT22;39812;52.430;16.936;2023-04-06T05:36:53;-0.60;99.90
53904;DHT22;39812;52.430;16.936;2023-04-06T05:39:19;-0.60;99.90
53904;DHT22;39812;52.430;16.936;2023-04-06T05:41:45;-0.40;99.90
53904;DHT22;39812;52.430;16.936;2023-04-06T05:44:11;-0.30;99.90
53904;DHT22;39812;52.430;16.936;2023-04-06T05:46:36;-0.30;99.90
53904;DHT22;39812;52.430;16.936;2023-04-06T05:49:02;-0.20;99.90
53904;DHT22;39812;52.430;16.936;2023-04-06T05:51:27;-0.10;99.90
53904;DHT22;39812;52.430;16.936;2023-04-06T05:53:53;0.00;99.90
53904;DHT22;39812;52.430;16.936;2023-04-06T05:56:18;0.00;99.90
53904;DHT22;39812;52.430;16.936;2023-04-06T05:58:44;0.00;99.80
53904;DHT22;39812;52.430;16.936;2023-04-06T06:01:10;0.20;99.50
53904;DHT22;39812;52.430;16.936;2023-04-06T06:03:36;0.20;99.40
53904;DHT22;39812;52.430;16.936;2023-04-06T06:06:02;0.30;99.00
53904;DHT22;39812;52.430;16.936;2023-04-06T06:08:29;0.40;98.80
53904;DHT22;39812;52.430;16.936;2023-04-06T06:10:55;0.50;98.70
53904;DHT22;39812;52.430;16.936;2023-04-06T06:13:21;0.70;98.40
53904;DHT22;39812;52.430;16.936;2023-04-06T06:15:47;0.80;98.00
53904;DHT22;39812;52.430;16.936;2023-04-06T06:18:13;0.90;97.70
53904;DHT22;39812;52.430;16.936;2023-04-06T06:20:39;1.00;97.20
53904;DHT22;39812;52.430;16.936;2023-04-06T06:23:04;1.10;97.20
53904;DHT22;39812;52.430;16.936;2023-04-06T06:25:30;1.30;96.80
53904;DHT22;39812;52.430;16.936;2023-04-06T06:27:59;1.40;96.40
53904;DHT22;39812;52.430;16.936;2023-04-06T06:30:25;1.50;96.00
53904;DHT22;39812;52.430;16.936;2023-04-06T06:32:51;1.60;95.70
53904;DHT22;39812;52.430;16.936;2023-04-06T06:35:17;1.70;95.60
53904;DHT22;39812;52.430;16.936;2023-04-06T06:37:43;1.70;95.60
53904;DHT22;39812;52.430;16.936;2023-04-06T06:40:10;1.80;95.60
53904;DHT22;39812;52.430;16.936;2023-04-06T06:42:38;1.90;95.40
53904;DHT22;39812;52.430;16.936;2023-04-06T06:45:04;1.90;95.00
53904;DHT22;39812;52.430;16.936;2023-04-06T06:47:30;2.00;95.00
53904;DHT22;39812;52.430;16.936;2023-04-06T06:49:56;2.20;94.80
53904;DHT22;39812;52.430;16.936;2023-04-06T06:52:21;2.20;94.60
53904;DHT22;39812;52.430;16.936;2023-04-06T06:54:49;2.30;94.40
53904;DHT22;39812;52.430;16.936;2023-04-06T06:57:15;2.30;94.10
53904;DHT22;39812;52.430;16.936;2023-04-06T06:59:40;2.40;93.80
53904;DHT22;39812;52.430;16.936;2023-04-06T07:02:06;2.40;93.40
53904;DHT22;39812;52.430;16.936;2023-04-06T07:04:32;2.60;93.30
53904;DHT22;39812;52.430;16.936;2023-04-06T07:06:57;2.70;92.70
53904;DHT22;39812;52.430;16.936;2023-04-06T07:09:23;2.70;92.40
53904;DHT22;39812;52.430;16.936;2023-04-06T07:11:48;2.90;91.80
53904;DHT22;39812;52.430;16.936;2023-04-06T07:14:15;2.90;91.50
53904;DHT22;39812;52.430;16.936;2023-04-06T07:16:41;3.00;91.30
53904;DHT22;39812;52.430;16.936;2023-04-06T07:19:07;3.10;91.10
53904;DHT22;39812;52.430;16.936;2023-04-06T07:21:34;3.30;89.20
53904;DHT22;39812;52.430;16.936;2023-04-06T07:23:59;3.40;88.00
53904;DHT22;39812;52.430;16.936;2023-04-06T07:26:25;3.50;87.30
53904;DHT22;39812;52.430;16.936;2023-04-06T07:28:50;3.60;87.20
53904;DHT22;39812;52.430;16.936;2023-04-06T07:31:16;3.70;86.10
53904;DHT22;39812;52.430;16.936;2023-04-06T07:33:42;3.70;84.50
53904;DHT22;39812;52.430;16.936;2023-04-06T07:36:07;3.70;83.90
53904;DHT22;39812;52.430;16.936;2023-04-06T07:38:33;3.80;83.40
53904;DHT22;39812;52.430;16.936;2023-04-06T07:40:58;4.00;82.40
53904;DHT22;39812;52.430;16.936;2023-04-06T07:43:24;4.00;82.30
53904;DHT22;39812;52.430;16.936;2023-04-06T07:45:50;4.10;82.20
53904;DHT22;39812;52.430;16.936;2023-04-06T07:48:16;4.10;82.10
53904;DHT22;39812;52.430;16.936;2023-04-06T07:50:41;4.20;81.70
53904;DHT22;39812;52.430;16.936;2023-04-06T07:53:08;4.20;80.90
53904;DHT22;39812;52.430;16.936;2023-04-06T07:55:34;4.30;80.90
53904;DHT22;39812;52.430;16.936;2023-04-06T07:58:00;4.40;80.40
53904;DHT22;39812;52.430;16.936;2023-04-06T08:00:26;4.50;79.60
53904;DHT22;39812;52.430;16.936;2023-04-06T08:02:51;4.40;78.90
53904;DHT22;39812;52.430;16.936;2023-04-06T08:05:17;4.50;78.90
53904;DHT22;39812;52.430;16.936;2023-04-06T08:07:43;4.60;78.80
53904;DHT22;39812;52.430;16.936;2023-04-06T08:10:09;4.50;78.40
53904;DHT22;39812;52.430;16.936;2023-04-06T08:12:35;4.60;78.40
53904;DHT22;39812;52.430;16.936;2023-04-06T08:15:01;4.70;77.80
53904;DHT22;39812;52.430;16.936;2023-04-06T08:17:27;4.90;77.90
53904;DHT22;39812;52.430;16.936;2023-04-06T08:19:55;5.00;77.30
53904;DHT22;39812;52.430;16.936;2023-04-06T08:22:21;5.00;77.00
53904;DHT22;39812;52.430;16.936;2023-04-06T08:24:46;4.90;77.10
53904;DHT22;39812;52.430;16.936;2023-04-06T08:27:12;5.00;76.80
53904;DHT22;39812;52.430;16.936;2023-04-06T08:29:39;5.10;76.70
53904;DHT22;39812;52.430;16.936;2023-04-06T08:32:04;5.10;76.60
53904;DHT22;39812;52.430;16.936;2023-04-06T08:34:33;5.20;76.80
53904;DHT22;39812;52.430;16.936;2023-04-06T08:36:58;5.30;76.40
53904;DHT22;39812;52.430;16.936;2023-04-06T08:39:24;5.30;75.80
53904;DHT22;39812;52.430;16.936;2023-04-06T08:41:52;5.40;76.20
53904;DHT22;39812;52.430;16.936;2023-04-06T08:44:18;5.50;75.90
53904;DHT22;39812;52.430;16.936;2023-04-06T08:46:43;5.60;75.40
53904;DHT22;39812;52.430;16.936;2023-04-06T08:49:09;5.80;75.00
53904;DHT22;39812;52.430;16.936;2023-04-06T08:51:37;5.90;73.70
53904;DHT22;39812;52.430;16.936;2023-04-06T08:54:03;6.00;73.80
53904;DHT22;39812;52.430;16.936;2023-04-06T08:56:29;6.10;72.70
53904;DHT22;39812;52.430;16.936;2023-04-06T08:58:55;6.10;72.10
53904;DHT22;39812;52.430;16.936;2023-04-06T09:01:23;6.00;72.10
53904;DHT22;39812;52.430;16.936;2023-04-06T09:03:51;5.80;72.40
53904;DHT22;39812;52.430;16.936;2023-04-06T09:06:21;5.80;72.20
53904;DHT22;39812;52.430;16.936;2023-04-06T09:08:46;5.90;72.00
53904;DHT22;39812;52.430;16.936;2023-04-06T09:11:12;5.90;71.00
53904;DHT22;39812;52.430;16.936;2023-04-06T09:13:50;5.90;71.40
53904;DHT22;39812;52.430;16.936;2023-04-06T09:16:16;6.10;70.50
53904;DHT22;39812;52.430;16.936;2023-04-06T09:18:42;6.10;69.60
53904;DHT22;39812;52.430;16.936;2023-04-06T09:21:08;6.00;70.20
53904;DHT22;39812;52.430;16.936;2023-04-06T09:23:35;6.10;70.70
53904;DHT22;39812;52.430;16.936;2023-04-06T09:26:17;6.20;70.10
53904;DHT22;39812;52.430;16.936;2023-04-06T09:28:51;6.40;69.50
53904;DHT22;39812;52.430;16.936;2023-04-06T09:31:25;6.50;69.20
53904;DHT22;39812;52.430;16.936;2023-04-06T09:33:51;6.50;69.20
53904;DHT22;39812;52.430;16.936;2023-04-06T09:36:17;6.60;70.00
53904;DHT22;39812;52.430;16.936;2023-04-06T09:38:55;6.70;69.90
53904;DHT22;39812;52.430;16.936;2023-04-06T09:41:35;6.90;70.00
53904;DHT22;39812;52.430;16.936;2023-04-06T09:44:07;7.10;69.50
53904;DHT22;39812;52.430;16.936;2023-04-06T09:46:35;7.30;68.90
53904;DHT22;39812;52.430;16.936;2023-04-06T09:49:02;7.10;68.40
53904;DHT22;39812;52.430;16.936;2023-04-06T09:51:31;7.20;68.50
53904;DHT22;39812;52.430;16.936;2023-04-06T09:53:57;7.00;68.40
53904;DHT22;39812;52.430;16.936;2023-04-06T09:56:30;7.00;68.60
53904;DHT22;39812;52.430;16.936;2023-04-06T09:59:01;7.10;68.40
53904;DHT22;39812;52.430;16.936;2023-04-06T10:01:29;6.80;68.60
53904;DHT22;39812;52.430;16.936;2023-04-06T10:04:13;6.90;68.30
53904;DHT22;39812;52.430;16.936;2023-04-06T10:06:40;7.00;68.40
53904;DHT22;39812;52.430;16.936;2023-04-06T10:09:07;7.00;66.60
53904;DHT22;39812;52.430;16.936;2023-04-06T10:11:34;7.20;67.40
53904;DHT22;39812;52.430;16.936;2023-04-06T10:14:00;7.60;67.90
53904;DHT22;39812;52.430;16.936;2023-04-06T10:16:26;7.70;67.40
53904;DHT22;39812;52.430;16.936;2023-04-06T10:19:15;7.90;66.90
53904;DHT22;39812;52.430;16.936;2023-04-06T10:21:44;8.10;66.70
53904;DHT22;39812;52.430;16.936;2023-04-06T10:24:12;7.90;64.50
53904;DHT22;39812;52.430;16.936;2023-04-06T10:26:38;7.70;62.60
53904;DHT22;39812;52.430;16.936;2023-04-06T10:29:05;7.40;63.90
53904;DHT22;39812;52.430;16.936;2023-04-06T10:31:31;7.50;63.20
53904;DHT22;39812;52.430;16.936;2023-04-06T10:33:58;7.60;63.20
53904;DHT22;39812;52.430;16.936;2023-04-06T10:36:27;7.60;62.60
53904;DHT22;39812;52.430;16.936;2023-04-06T10:39:01;7.50;63.10
53904;DHT22;39812;52.430;16.936;2023-04-06T10:41:41;7.40;64.20
53904;DHT22;39812;52.430;16.936;2023-04-06T10:44:07;7.00;63.60
53904;DHT22;39812;52.430;16.936;2023-04-06T10:46:33;7.10;64.30
53904;DHT22;39812;52.430;16.936;2023-04-06T10:49:10;7.40;64.20
53904;DHT22;39812;52.430;16.936;2023-04-06T10:51:38;7.50;64.00
53904;DHT22;39812;52.430;16.936;2023-04-06T10:54:06;7.70;63.30
53904;DHT22;39812;52.430;16.936;2023-04-06T10:56:33;7.80;62.40
53904;DHT22;39812;52.430;16.936;2023-04-06T10:59:02;7.80;62.20
53904;DHT22;39812;52.430;16.936;2023-04-06T11:01:27;8.00;62.30
53904;DHT22;39812;52.430;16.936;2023-04-06T11:03:56;8.00;62.40
53904;DHT22;39812;52.430;16.936;2023-04-06T11:06:29;8.00;62.20
53904;DHT22;39812;52.430;16.936;2023-04-06T11:08:57;8.10;62.10
53904;DHT22;39812;52.430;16.936;2023-04-06T11:11:24;8.10;62.00
53904;DHT22;39812;52.430;16.936;2023-04-06T11:13:54;8.20;62.60
53904;DHT22;39812;52.430;16.936;2023-04-06T11:16:23;8.10;62.40
53904;DHT22;39812;52.430;16.936;2023-04-06T11:21:18;8.30;63.10
53904;DHT22;39812;52.430;16.936;2023-04-06T11:23:43;8.30;62.00
53904;DHT22;39812;52.430;16.936;2023-04-06T11:26:12;8.40;62.20
53904;DHT22;39812;52.430;16.936;2023-04-06T11:28:41;8.70;62.20
53904;DHT22;39812;52.430;16.936;2023-04-06T11:31:08;9.10;61.10
53904;DHT22;39812;52.430;16.936;2023-04-06T11:33:38;9.80;59.70
53904;DHT22;39812;52.430;16.936;2023-04-06T11:36:06;10.50;58.70
53904;DHT22;39812;52.430;16.936;2023-04-06T11:38:33;11.60;58.10
53904;DHT22;39812;52.430;16.936;2023-04-06T11:40:59;13.10;56.20
53904;DHT22;39812;52.430;16.936;2023-04-06T11:43:30;13.80;54.20
53904;DHT22;39812;52.430;16.936;2023-04-06T11:46:03;13.90;53.10
53904;DHT22;39812;52.430;16.936;2023-04-06T11:48:29;15.00;51.70
53904;DHT22;39812;52.430;16.936;2023-04-06T11:50:58;16.40;49.30
53904;DHT22;39812;52.430;16.936;2023-04-06T11:53:29;18.20;47.00
53904;DHT22;39812;52.430;16.936;2023-04-06T11:55:56;19.50;44.10
53904;DHT22;39812;52.430;16.936;2023-04-06T11:58:22;20.80;42.20
53904;DHT22;39812;52.430;16.936;2023-04-06T12:00:47;21.40;40.90
53904;DHT22;39812;52.430;16.936;2023-04-06T12:03:14;22.00;39.70
53904;DHT22;39812;52.430;16.936;2023-04-06T12:05:39;23.00;38.70
53904;DHT22;39812;52.430;16.936;2023-04-06T12:08:05;23.90;37.50
53904;DHT22;39812;52.430;16.936;2023-04-06T12:10:31;24.40;36.40
53904;DHT22;39812;52.430;16.936;2023-04-06T12:12:57;24.70;35.70
53904;DHT22;39812;52.430;16.936;2023-04-06T12:15:23;24.20;35.70
53904;DHT22;39812;52.430;16.936;2023-04-06T12:17:48;24.40;35.30
53904;DHT22;39812;52.430;16.936;2023-04-06T12:20:15;24.20;35.20
53904;DHT22;39812;52.430;16.936;2023-04-06T12:22:40;23.10;35.90
53904;DHT22;39812;52.430;16.936;2023-04-06T12:25:06;23.20;36.00
53904;DHT22;39812;52.430;16.936;2023-04-06T12:27:32;24.00;35.80
53904;DHT22;39812;52.430;16.936;2023-04-06T12:29:58;25.60;35.20
53904;DHT22;39812;52.430;16.936;2023-04-06T12:32:24;26.20;33.80
53904;DHT22;39812;52.430;16.936;2023-04-06T12:34:52;26.80;33.30
53904;DHT22;39812;52.430;16.936;2023-04-06T12:37:17;26.90;32.90
53904;DHT22;39812;52.430;16.936;2023-04-06T12:39:43;26.90;32.80
53904;DHT22;39812;52.430;16.936;2023-04-06T12:42:10;27.10;32.70
53904;DHT22;39812;52.430;16.936;2023-04-06T12:44:36;27.80;32.50
53904;DHT22;39812;52.430;16.936;2023-04-06T12:47:02;26.90;31.60
53904;DHT22;39812;52.430;16.936;2023-04-06T12:49:27;22.90;34.80
53904;DHT22;39812;52.430;16.936;2023-04-06T12:51:53;23.00;35.60
53904;DHT22;39812;52.430;16.936;2023-04-06T12:54:19;24.90;34.60
53904;DHT22;39812;52.430;16.936;2023-04-06T12:56:45;26.80;33.40
53904;DHT22;39812;52.430;16.936;2023-04-06T12:59:11;28.40;32.50
53904;DHT22;39812;52.430;16.936;2023-04-06T13:01:37;28.80;31.60
53904;DHT22;39812;52.430;16.936;2023-04-06T13:04:02;29.20;31.70
53904;DHT22;39812;52.430;16.936;2023-04-06T13:06:28;29.50;31.10
53904;DHT22;39812;52.430;16.936;2023-04-06T13:08:54;28.80;31.20
53904;DHT22;39812;52.430;16.936;2023-04-06T13:11:20;28.70;31.60
53904;DHT22;39812;52.430;16.936;2023-04-06T13:13:49;27.80;31.70
53904;DHT22;39812;52.430;16.936;2023-04-06T13:16:15;27.80;32.20
53904;DHT22;39812;52.430;16.936;2023-04-06T13:18:40;27.90;32.00
53904;DHT22;39812;52.430;16.936;2023-04-06T13:21:07;29.00;31.10
53904;DHT22;39812;52.430;16.936;2023-04-06T13:23:34;29.20;30.50
53904;DHT22;39812;52.430;16.936;2023-04-06T13:26:04;29.60;30.60
53904;DHT22;39812;52.430;16.936;2023-04-06T13:28:31;27.80;30.00
53904;DHT22;39812;52.430;16.936;2023-04-06T13:30:59;27.20;31.50
53904;DHT22;39812;52.430;16.936;2023-04-06T13:33:25;28.00;31.80
53904;DHT22;39812;52.430;16.936;2023-04-06T13:35:51;27.70;31.90
53904;DHT22;39812;52.430;16.936;2023-04-06T13:38:17;27.90;31.40
53904;DHT22;39812;52.430;16.936;2023-04-06T13:40:43;28.10;31.30
53904;DHT22;39812;52.430;16.936;2023-04-06T13:43:09;28.50;31.10
53904;DHT22;39812;52.430;16.936;2023-04-06T13:45:35;29.10;30.60
53904;DHT22;39812;52.430;16.936;2023-04-06T13:48:01;28.00;30.10
53904;DHT22;39812;52.430;16.936;2023-04-06T13:50:26;25.70;31.80
53904;DHT22;39812;52.430;16.936;2023-04-06T13:52:52;25.80;32.60
53904;DHT22;39812;52.430;16.936;2023-04-06T13:55:18;24.30;32.50
53904;DHT22;39812;52.430;16.936;2023-04-06T13:57:43;23.60;34.10
53904;DHT22;39812;52.430;16.936;2023-04-06T14:00:10;24.30;34.30
53904;DHT22;39812;52.430;16.936;2023-04-06T14:02:41;25.50;33.30
53904;DHT22;39812;52.430;16.936;2023-04-06T14:05:07;27.20;32.50
53904;DHT22;39812;52.430;16.936;2023-04-06T14:07:32;28.30;31.80
53904;DHT22;39812;52.430;16.936;2023-04-06T14:09:58;28.30;32.20
53904;DHT22;39812;52.430;16.936;2023-04-06T14:12:24;27.60;31.20
53904;DHT22;39812;52.430;16.936;2023-04-06T14:14:49;27.30;31.80
53904;DHT22;39812;52.430;16.936;2023-04-06T14:17:15;27.10;32.40
53904;DHT22;39812;52.430;16.936;2023-04-06T14:19:41;27.00;32.00
53904;DHT22;39812;52.430;16.936;2023-04-06T14:22:07;26.10;32.40
53904;DHT22;39812;52.430;16.936;2023-04-06T14:24:34;25.30;33.00
53904;DHT22;39812;52.430;16.936;2023-04-06T14:27:01;25.10;33.30
53904;DHT22;39812;52.430;16.936;2023-04-06T14:29:27;25.20;33.70
53904;DHT22;39812;52.430;16.936;2023-04-06T14:31:52;26.60;33.00
53904;DHT22;39812;52.430;16.936;2023-04-06T14:34:18;27.10;32.00
53904;DHT22;39812;52.430;16.936;2023-04-06T14:36:44;27.70;31.40
53904;DHT22;39812;52.430;16.936;2023-04-06T14:39:09;27.10;31.10
53904;DHT22;39812;52.430;16.936;2023-04-06T14:41:35;26.50;31.70
53904;DHT22;39812;52.430;16.936;2023-04-06T14:44:01;24.70;32.50
53904;DHT22;39812;52.430;16.936;2023-04-06T14:46:27;24.10;33.60
53904;DHT22;39812;52.430;16.936;2023-04-06T14:48:56;24.70;33.40
53904;DHT22;39812;52.430;16.936;2023-04-06T14:51:24;26.60;32.80
53904;DHT22;39812;52.430;16.936;2023-04-06T14:53:51;28.30;31.60
53904;DHT22;39812;52.430;16.936;2023-04-06T14:56:21;29.80;30.70
53904;DHT22;39812;52.430;16.936;2023-04-06T14:58:46;29.90;30.00
53904;DHT22;39812;52.430;16.936;2023-04-06T15:01:12;29.00;30.10
53904;DHT22;39812;52.430;16.936;2023-04-06T15:03:38;27.60;30.70
53904;DHT22;39812;52.430;16.936;2023-04-06T15:06:03;25.60;32.00
53904;DHT22;39812;52.430;16.936;2023-04-06T15:08:29;27.20;32.10
53904;DHT22;39812;52.430;16.936;2023-04-06T15:10:59;25.50;32.60
53904;DHT22;39812;52.430;16.936;2023-04-06T15:13:24;25.30;32.90
53904;DHT22;39812;52.430;16.936;2023-04-06T15:15:51;26.20;32.80
53904;DHT22;39812;52.430;16.936;2023-04-06T15:18:16;26.90;32.40
53904;DHT22;39812;52.430;16.936;2023-04-06T15:20:42;27.60;31.50